createdAt,value
2022-12-03T00:00:12.903Z,16.60
2022-12-03T00:02:42.076Z,17.42
2022-12-03T00:05:10.422Z,15.80
2022-12-03T00:07:37.911Z,17.88
2022-12-03T00:10:06.608Z,16.30
2022-12-03T00:12:33.652Z,16.83
2022-12-03T00:15:00.954Z,16.40
2022-12-03T00:17:28.259Z,17.70
2022-12-03T00:19:55.676Z,17.20
2022-12-03T00:22:23.213Z,16.83
2022-12-03T00:24:50.578Z,16.63
2022-12-03T00:27:17.930Z,17.20
2022-12-03T00:29:45.701Z,16.75
2022-12-03T00:32:14.223Z,17.65
2022-12-03T00:34:41.319Z,15.75
2022-12-03T00:37:08.421Z,16.15
2022-12-03T00:39:35.470Z,17.33
2022-12-03T00:42:03.012Z,17.63
2022-12-03T00:44:30.485Z,16.00
2022-12-03T00:46:57.560Z,17.63
2022-12-03T00:49:24.615Z,18.35
2022-12-03T00:51:52.559Z,17.17
2022-12-03T00:54:19.746Z,16.35
2022-12-03T00:56:46.853Z,17.40
2022-12-03T00:59:15.620Z,17.25
2022-12-03T01:01:42.821Z,16.83
2022-12-03T01:04:09.980Z,16.20
2022-12-03T01:06:37.083Z,16.70
2022-12-03T01:09:04.560Z,18.00
2022-12-03T01:11:38.377Z,16.70
2022-12-03T01:14:08.180Z,17.20
2022-12-03T01:16:36.301Z,16.35
2022-12-03T01:19:04.601Z,16.55
2022-12-03T01:21:31.925Z,15.88
2022-12-03T01:24:01.621Z,15.95
2022-12-03T01:26:28.659Z,15.82
2022-12-03T01:28:55.775Z,17.55
2022-12-03T01:31:41.585Z,17.48
2022-12-03T01:34:08.884Z,15.70
2022-12-03T01:36:35.803Z,16.00
2022-12-03T01:39:04.303Z,15.73
2022-12-03T01:41:32.314Z,15.98
2022-12-03T01:44:00.104Z,16.02
2022-12-03T01:46:46.027Z,16.77
2022-12-03T01:49:22.669Z,15.65
2022-12-03T01:51:52.923Z,15.85
2022-12-03T01:54:25.589Z,15.98
2022-12-03T01:56:54.574Z,15.05
2022-12-03T01:59:30.079Z,16.52
2022-12-03T02:01:57.884Z,15.38
2022-12-03T02:04:27.905Z,17.60
2022-12-03T02:06:55.655Z,16.00
2022-12-03T02:09:26.518Z,15.38
2022-12-03T02:11:55.949Z,16.33
2022-12-03T02:14:23.392Z,14.60
2022-12-03T02:16:50.626Z,15.70
2022-12-03T02:19:27.756Z,17.10
2022-12-03T02:22:08.007Z,15.93
2022-12-03T02:24:59.705Z,16.48
2022-12-03T02:27:29.126Z,15.87
2022-12-03T02:29:57.554Z,15.25
2022-12-03T02:32:24.867Z,15.98
2022-12-03T02:34:56.184Z,17.27
2022-12-03T02:37:27.471Z,16.23
2022-12-03T02:40:00.514Z,17.15
2022-12-03T02:42:37.486Z,16.98
2022-12-03T02:45:29.235Z,17.95
2022-12-03T02:48:02.804Z,16.08
2022-12-03T02:50:33.938Z,17.52
2022-12-03T02:53:05.551Z,17.95
2022-12-03T02:55:49.245Z,16.48
2022-12-03T02:58:16.612Z,18.38
2022-12-03T03:00:45.150Z,16.67
2022-12-03T03:03:12.846Z,17.45
2022-12-03T03:05:42.148Z,17.38
2022-12-03T03:08:10.377Z,17.38
2022-12-03T03:10:40.695Z,18.65
2022-12-03T03:13:12.461Z,17.55
2022-12-03T03:15:41.665Z,17.17
2022-12-03T03:18:11.550Z,18.30
2022-12-03T03:20:39.195Z,19.70
2022-12-03T03:23:18.512Z,17.95
2022-12-03T03:25:50.048Z,18.27
2022-12-03T03:28:19.992Z,17.38
2022-12-03T03:30:47.368Z,18.00
2022-12-03T03:33:16.349Z,17.60
2022-12-03T03:35:44.905Z,18.15
2022-12-03T03:38:12.805Z,17.10
2022-12-03T03:40:40.614Z,17.05
2022-12-03T03:43:07.717Z,15.95
2022-12-03T03:45:37.985Z,17.85
2022-12-03T03:50:34.813Z,15.98
2022-12-03T03:53:03.439Z,16.65
2022-12-03T03:55:31.350Z,16.17
2022-12-03T03:58:04.392Z,17.05
2022-12-03T04:00:32.669Z,17.25
2022-12-03T04:02:59.768Z,16.92
2022-12-03T04:05:27.885Z,16.27
2022-12-03T04:07:54.980Z,16.58
2022-12-03T04:10:40.520Z,16.75
2022-12-03T04:13:07.441Z,17.13
2022-12-03T04:15:34.486Z,16.52
2022-12-03T04:18:20.128Z,17.23
2022-12-03T04:20:48.048Z,15.35
2022-12-03T04:23:15.084Z,16.25
2022-12-03T04:26:00.400Z,16.55
2022-12-03T04:28:46.052Z,15.57
2022-12-03T04:31:31.642Z,16.45
2022-12-03T04:34:17.718Z,16.67
2022-12-03T04:36:44.758Z,15.57
2022-12-03T04:39:12.007Z,16.30
2022-12-03T04:41:39.142Z,15.75
2022-12-03T04:44:25.052Z,16.38
2022-12-03T04:46:52.032Z,16.30
2022-12-03T04:49:19.200Z,15.95
2022-12-03T04:51:46.357Z,15.00
2022-12-03T04:54:14.810Z,15.95
2022-12-03T04:56:41.985Z,15.02
2022-12-03T04:59:15.756Z,16.17
2022-12-03T05:01:44.066Z,15.85
2022-12-03T05:04:15.080Z,15.90
2022-12-03T05:06:46.192Z,15.88
2022-12-03T05:09:13.650Z,15.23
2022-12-03T05:11:41.816Z,16.58
2022-12-03T05:14:09.329Z,14.50
2022-12-03T05:16:37.650Z,15.65
2022-12-03T05:19:06.859Z,15.10
2022-12-03T05:21:34.231Z,15.18
2022-12-03T05:24:08.633Z,15.82
2022-12-03T05:26:35.629Z,15.35
2022-12-03T05:29:02.896Z,15.40
2022-12-03T05:31:30.197Z,15.45
2022-12-03T05:33:57.160Z,16.13
2022-12-03T05:36:25.463Z,15.40
2022-12-03T05:38:52.652Z,15.70
2022-12-03T05:41:38.360Z,14.45
2022-12-03T05:44:05.533Z,14.50
2022-12-03T05:46:33.048Z,16.65
2022-12-03T05:49:00.201Z,16.10
2022-12-03T05:51:27.694Z,15.65
2022-12-03T05:53:57.340Z,16.42
2022-12-03T05:56:25.938Z,15.68
2022-12-03T05:58:53.018Z,15.30
2022-12-03T06:01:21.413Z,15.52
2022-12-03T06:03:48.639Z,15.10
2022-12-03T06:06:16.394Z,14.45
2022-12-03T06:08:43.505Z,14.65
2022-12-03T06:11:10.579Z,16.00
2022-12-03T06:13:37.815Z,15.63
2022-12-03T06:16:05.328Z,16.42
2022-12-03T06:18:32.264Z,15.43
2022-12-03T06:20:59.139Z,15.27
2022-12-03T06:23:26.054Z,15.57
2022-12-03T06:25:53.133Z,16.25
2022-12-03T06:28:20.114Z,15.57
2022-12-03T06:30:47.134Z,14.75
2022-12-03T06:33:14.081Z,16.77
2022-12-03T06:35:41.122Z,15.82
2022-12-03T06:38:08.155Z,14.73
2022-12-03T06:40:35.458Z,17.25
2022-12-03T06:43:02.624Z,15.85
2022-12-03T06:45:30.370Z,16.42
2022-12-03T06:47:57.449Z,15.73
2022-12-03T06:50:24.423Z,15.48
2022-12-03T06:52:51.282Z,15.82
2022-12-03T06:55:18.187Z,17.10
2022-12-03T06:57:45.431Z,18.85
2022-12-03T07:00:13.009Z,16.90
2022-12-03T07:02:40.131Z,16.83
2022-12-03T07:05:07.977Z,17.23
2022-12-03T07:07:35.166Z,16.27
2022-12-03T07:10:02.568Z,18.10
2022-12-03T07:12:29.521Z,17.35
2022-12-03T07:14:57.418Z,17.98
2022-12-03T07:17:24.501Z,16.67
2022-12-03T07:19:52.098Z,18.17
2022-12-03T07:22:19.908Z,15.75
2022-12-03T07:24:47.105Z,17.25
2022-12-03T07:27:23.058Z,17.58
2022-12-03T07:29:50.270Z,17.27
2022-12-03T07:32:17.543Z,16.83
2022-12-03T07:34:44.712Z,16.23
2022-12-03T07:37:11.860Z,17.52
2022-12-03T07:39:40.844Z,17.65
2022-12-03T07:42:09.547Z,17.40
2022-12-03T07:44:36.617Z,18.17
2022-12-03T07:47:03.691Z,18.05
2022-12-03T07:49:30.933Z,18.67
2022-12-03T07:51:58.248Z,17.40
2022-12-03T07:54:26.035Z,17.00
2022-12-03T07:56:59.606Z,17.73
2022-12-03T07:59:29.214Z,16.25
2022-12-03T08:01:56.765Z,16.45
2022-12-03T08:04:23.883Z,16.73
2022-12-03T08:06:51.028Z,17.65
2022-12-03T08:09:18.423Z,17.25
2022-12-03T08:11:48.540Z,16.77
2022-12-03T08:14:19.103Z,17.27
2022-12-03T08:16:47.908Z,16.95
2022-12-03T08:19:17.978Z,17.65
2022-12-03T08:21:45.703Z,16.55
2022-12-03T08:24:17.079Z,17.27
2022-12-03T08:26:45.427Z,17.58
2022-12-03T08:29:15.303Z,16.67
2022-12-03T08:31:46.048Z,17.63
2022-12-03T08:34:22.287Z,17.48
2022-12-03T08:37:01.764Z,17.75
2022-12-03T08:39:34.454Z,17.00
2022-12-03T08:42:44.536Z,17.42
2022-12-03T08:45:40.735Z,16.92
2022-12-03T08:48:13.551Z,15.70
2022-12-03T08:50:42.609Z,16.17
2022-12-03T08:53:25.353Z,17.73
2022-12-03T08:55:54.476Z,17.85
2022-12-03T08:58:31.854Z,17.27
2022-12-03T09:01:10.832Z,16.90
2022-12-03T09:03:54.913Z,16.38
2022-12-03T09:06:23.697Z,17.27
2022-12-03T09:08:51.128Z,16.33
2022-12-03T09:11:19.360Z,17.08
2022-12-03T09:13:46.598Z,15.73
2022-12-03T09:16:13.725Z,15.80
2022-12-03T09:18:40.878Z,15.35
2022-12-03T09:21:07.836Z,15.30
2022-12-03T09:23:34.973Z,16.58
2022-12-03T09:26:01.949Z,16.20
2022-12-03T09:28:28.955Z,14.82
2022-12-03T09:30:56.085Z,14.45
2022-12-03T09:33:23.364Z,15.35
2022-12-03T09:35:50.701Z,16.23
2022-12-03T09:38:17.699Z,14.93
2022-12-03T09:40:44.714Z,16.48
2022-12-03T09:43:13.861Z,16.17
2022-12-03T09:45:41.182Z,15.00
2022-12-03T09:48:08.286Z,14.85
2022-12-03T09:50:40.374Z,15.15
2022-12-03T09:53:10.816Z,15.30
2022-12-03T09:55:38.100Z,15.30
2022-12-03T09:58:12.345Z,14.95
2022-12-03T10:00:40.148Z,15.23
2022-12-03T10:03:13.018Z,15.23
2022-12-03T10:05:43.837Z,15.10
2022-12-03T10:08:20.992Z,16.60
2022-12-03T10:10:55.167Z,14.70
2022-12-03T10:13:28.756Z,15.98
2022-12-03T10:15:57.979Z,15.20
2022-12-03T10:18:30.703Z,14.10
2022-12-03T10:20:58.522Z,14.57
2022-12-03T10:23:28.404Z,14.73
2022-12-03T10:26:03.736Z,14.65
2022-12-03T10:28:32.758Z,14.73
2022-12-03T10:31:02.182Z,15.32
2022-12-03T10:33:40.892Z,13.98
2022-12-03T10:36:27.062Z,14.30
2022-12-03T10:39:12.432Z,14.35
2022-12-03T10:41:41.278Z,15.63
2022-12-03T10:44:26.093Z,15.38
2022-12-03T10:47:10.955Z,15.88
2022-12-03T10:49:39.196Z,15.73
2022-12-03T10:52:14.250Z,15.80
2022-12-03T10:54:41.546Z,15.60
2022-12-03T10:57:10.636Z,15.27
2022-12-03T10:59:39.491Z,16.30
2022-12-03T11:02:21.185Z,15.15
2022-12-03T11:04:48.944Z,16.20
2022-12-03T11:07:19.751Z,15.18
2022-12-03T11:09:50.260Z,16.50
2022-12-03T11:12:28.397Z,15.77
2022-12-03T11:14:56.929Z,14.98
2022-12-03T11:18:02.028Z,15.40
2022-12-03T11:20:31.976Z,16.02
2022-12-03T11:22:59.953Z,14.40
2022-12-03T11:25:27.162Z,15.65
2022-12-03T11:28:15.958Z,15.57
2022-12-03T11:30:48.986Z,14.65
2022-12-03T11:33:22.570Z,14.65
2022-12-03T11:36:03.706Z,16.67
2022-12-03T11:38:53.957Z,15.63
2022-12-03T11:41:28.403Z,15.70
2022-12-03T11:43:56.472Z,15.52
2022-12-03T11:46:43.774Z,16.02
2022-12-03T11:49:28.916Z,15.25
2022-12-03T11:51:57.953Z,17.35
2022-12-03T11:54:25.604Z,14.95
2022-12-03T11:56:54.615Z,16.00
2022-12-03T11:59:21.958Z,16.38
2022-12-03T12:01:49.288Z,15.52
2022-12-03T12:04:34.663Z,15.80
2022-12-03T12:07:02.531Z,16.05
2022-12-03T12:09:53.479Z,15.65
2022-12-03T12:12:31.678Z,16.55
2022-12-03T12:15:00.049Z,17.55
2022-12-03T12:17:33.901Z,18.38
2022-12-03T12:20:27.353Z,16.95
2022-12-03T12:22:55.904Z,15.55
2022-12-03T12:25:39.332Z,16.25
2022-12-03T12:28:07.506Z,16.63
2022-12-03T12:54:33.818Z,18.17
2022-12-03T12:57:00.860Z,16.38
2022-12-03T12:59:29.502Z,16.30
2022-12-03T13:02:00.668Z,16.35
2022-12-03T13:04:30.737Z,17.23
2022-12-03T13:06:57.633Z,16.80
2022-12-03T13:09:26.234Z,17.50
2022-12-03T13:11:56.585Z,17.55
2022-12-03T13:14:26.462Z,17.98
2022-12-03T13:16:56.053Z,17.52
2022-12-03T13:19:39.573Z,15.80
2022-12-03T13:22:22.098Z,16.80
2022-12-03T13:24:51.340Z,17.05
2022-12-03T13:27:18.453Z,16.90
2022-12-03T13:29:53.261Z,16.88
2022-12-03T13:32:27.966Z,15.90
2022-12-03T13:35:05.510Z,15.32
2022-12-03T13:37:32.816Z,16.25
2022-12-03T13:40:30.659Z,16.90
2022-12-03T13:42:59.546Z,17.00
2022-12-03T13:45:37.937Z,16.65
2022-12-03T13:48:26.162Z,15.60
2022-12-03T13:50:55.138Z,16.65
2022-12-03T13:53:25.810Z,14.85
2022-12-03T13:56:15.568Z,16.65
2022-12-03T13:58:42.532Z,16.58
2022-12-03T14:01:10.145Z,16.42
2022-12-03T14:03:37.197Z,15.88
2022-12-03T14:06:04.170Z,19.17
2022-12-03T14:08:31.110Z,17.83
2022-12-03T14:11:00.526Z,18.35
2022-12-03T14:13:28.022Z,16.40
2022-12-03T14:15:55.398Z,18.80
2022-12-03T14:18:22.679Z,15.85
2022-12-03T14:20:50.277Z,15.93
2022-12-03T14:23:17.275Z,17.77
2022-12-03T14:25:45.240Z,16.73
2022-12-03T14:28:12.901Z,15.07
2022-12-03T14:30:40.001Z,16.45
2022-12-03T14:33:07.304Z,15.73
2022-12-03T14:35:35.717Z,15.20
2022-12-03T14:38:02.639Z,16.20
2022-12-03T14:40:29.603Z,16.73
2022-12-03T14:42:56.905Z,16.02
2022-12-03T14:45:25.223Z,15.07
2022-12-03T14:47:52.416Z,17.42
2022-12-03T14:50:19.682Z,15.38
2022-12-03T14:52:46.869Z,15.85
2022-12-03T14:55:13.877Z,16.17
2022-12-03T14:57:41.028Z,15.43
2022-12-03T15:00:08.628Z,17.95
2022-12-03T15:02:35.786Z,16.42
2022-12-03T15:05:02.957Z,17.02
2022-12-03T15:07:30.096Z,17.55
2022-12-03T15:09:58.683Z,16.38
2022-12-03T15:12:27.235Z,16.38
2022-12-03T15:14:54.751Z,17.23
2022-12-03T15:17:30.877Z,15.82
2022-12-03T15:19:58.916Z,16.00
2022-12-03T15:22:25.899Z,17.10
2022-12-03T15:24:54.148Z,17.08
2022-12-03T15:27:21.348Z,18.58
2022-12-03T15:29:49.304Z,17.05
2022-12-03T15:32:16.389Z,17.85
2022-12-03T15:34:43.662Z,18.23
2022-12-03T15:37:10.872Z,18.33
2022-12-03T15:39:52.700Z,19.00
2022-12-03T15:42:20.121Z,17.17
2022-12-03T15:44:49.188Z,16.05
2022-12-03T15:47:16.198Z,18.10
2022-12-03T15:49:43.162Z,16.40
2022-12-03T15:52:35.767Z,15.73
2022-12-03T15:57:30.027Z,15.68
2022-12-03T15:59:57.524Z,16.00
2022-12-03T16:02:25.215Z,15.70
2022-12-03T16:04:52.207Z,15.13
2022-12-03T16:07:19.064Z,16.80
2022-12-03T16:09:46.392Z,17.75
2022-12-03T16:12:13.357Z,18.58
2022-12-03T16:14:40.614Z,21.20
2022-12-03T16:17:07.717Z,17.35
2022-12-03T16:19:35.017Z,17.05
2022-12-03T16:22:02.477Z,16.98
2022-12-03T16:24:29.449Z,15.13
2022-12-03T16:26:56.437Z,15.93
2022-12-03T16:29:23.609Z,15.00
2022-12-03T16:31:51.141Z,17.75
2022-12-03T16:34:18.143Z,16.83
2022-12-03T16:36:45.766Z,17.52
2022-12-03T16:39:13.049Z,18.02
2022-12-03T16:41:40.099Z,17.38
2022-12-03T16:44:07.384Z,17.08
2022-12-03T16:46:34.929Z,16.50
2022-12-03T16:49:03.773Z,17.90
2022-12-03T16:51:30.869Z,16.33
2022-12-03T16:53:58.003Z,15.93
2022-12-03T16:56:25.290Z,17.10
2022-12-03T16:58:52.563Z,16.95
2022-12-03T17:01:23.540Z,15.55
2022-12-03T17:03:50.946Z,16.85
2022-12-03T17:06:18.193Z,16.77
2022-12-03T17:08:49.434Z,16.75
2022-12-03T17:11:17.980Z,15.82
2022-12-03T17:13:45.529Z,16.75
2022-12-03T17:16:12.832Z,17.08
2022-12-03T17:18:40.145Z,16.98
2022-12-03T17:21:07.351Z,16.58
2022-12-03T17:23:34.685Z,15.73
2022-12-03T17:26:02.157Z,16.50
2022-12-03T17:28:29.219Z,16.60
2022-12-03T17:30:56.644Z,16.75
2022-12-03T17:33:25.304Z,15.77
2022-12-03T17:35:52.329Z,17.77
2022-12-03T17:38:19.563Z,18.60
2022-12-03T17:40:46.771Z,17.92
2022-12-03T17:43:13.910Z,18.05
2022-12-03T17:45:41.834Z,16.88
2022-12-03T17:48:10.118Z,16.42
2022-12-03T17:50:37.985Z,17.35
2022-12-03T17:53:07.966Z,16.88
2022-12-03T17:55:41.252Z,18.35
2022-12-03T17:58:13.064Z,18.00
2022-12-03T18:00:40.525Z,18.30
2022-12-03T18:03:10.352Z,17.38
2022-12-03T18:05:39.728Z,20.13
2022-12-03T18:08:07.260Z,19.30
2022-12-03T18:10:34.556Z,18.77
2022-12-03T18:13:02.520Z,18.25
2022-12-03T18:15:34.245Z,18.42
2022-12-03T18:18:07.564Z,18.33
2022-12-03T18:20:34.654Z,17.88
2022-12-03T18:23:01.877Z,19.23
2022-12-03T18:25:29.386Z,18.80
2022-12-03T18:27:56.936Z,18.77
2022-12-03T18:30:24.069Z,18.60
2022-12-03T18:32:51.345Z,19.30
2022-12-03T18:35:18.944Z,17.50
2022-12-03T18:37:46.145Z,17.95
2022-12-03T18:40:20.388Z,18.35
2022-12-03T18:42:47.781Z,18.65
2022-12-03T18:45:15.958Z,18.15
2022-12-03T18:47:43.713Z,17.50
2022-12-03T18:50:12.336Z,18.33
2022-12-03T18:52:40.090Z,17.77
2022-12-03T18:55:08.225Z,18.00
2022-12-03T18:57:35.285Z,18.88
2022-12-03T19:00:13.189Z,18.52
2022-12-03T19:05:28.305Z,16.25
2022-12-03T19:07:56.554Z,19.10
2022-12-03T19:10:24.371Z,17.90
2022-12-03T19:12:51.688Z,19.65
2022-12-03T19:15:21.417Z,18.17
2022-12-03T19:17:52.413Z,19.17
2022-12-03T19:20:20.319Z,17.75
2022-12-03T19:22:47.521Z,18.73
2022-12-03T19:25:17.796Z,19.23
2022-12-03T19:27:45.154Z,18.38
2022-12-03T19:30:12.940Z,19.25
2022-12-03T19:32:40.113Z,18.88
2022-12-03T19:35:07.846Z,17.88
2022-12-03T19:37:35.077Z,18.17
2022-12-03T19:40:02.551Z,19.50
2022-12-03T19:42:31.267Z,19.50
2022-12-03T19:44:58.701Z,19.30
2022-12-03T19:47:25.783Z,19.33
2022-12-03T19:49:53.954Z,18.52
2022-12-03T19:52:21.355Z,19.52
2022-12-03T19:54:48.793Z,18.50
2022-12-03T19:57:22.912Z,19.80
2022-12-03T19:59:50.806Z,19.77
2022-12-03T20:02:18.014Z,19.15
2022-12-03T20:04:45.445Z,19.75
2022-12-03T20:07:12.841Z,19.20
2022-12-03T20:09:39.929Z,20.33
2022-12-03T20:12:07.303Z,20.40
2022-12-03T20:14:34.373Z,20.35
2022-12-03T20:17:01.811Z,19.48
2022-12-03T20:19:30.123Z,18.98
2022-12-03T20:22:02.325Z,19.65
2022-12-03T20:24:29.953Z,19.13
2022-12-03T20:26:57.330Z,19.60
2022-12-03T20:29:24.356Z,17.52
2022-12-03T20:31:52.086Z,20.25
2022-12-03T20:34:19.682Z,20.17
2022-12-03T20:36:46.893Z,19.95
2022-12-03T20:39:14.134Z,18.85
2022-12-03T20:41:41.335Z,18.75
2022-12-03T20:44:08.422Z,20.33
2022-12-03T20:46:36.495Z,19.45
2022-12-03T20:49:03.792Z,19.23
2022-12-03T20:51:32.138Z,19.33
2022-12-03T20:54:00.887Z,20.33
2022-12-03T20:56:32.886Z,20.73
2022-12-03T20:59:02.404Z,19.20
2022-12-03T21:01:29.726Z,18.30
2022-12-03T21:03:57.571Z,20.90
2022-12-03T21:06:31.327Z,20.95
2022-12-03T21:09:01.366Z,19.65
2022-12-03T21:11:31.276Z,20.30
2022-12-03T21:13:59.969Z,18.65
2022-12-03T21:17:05.723Z,19.95
2022-12-03T21:19:21.095Z,19.63
2022-12-03T21:21:49.961Z,21.70
2022-12-03T21:24:17.230Z,21.15
2022-12-03T21:26:44.269Z,20.45
2022-12-03T21:29:11.481Z,20.58
2022-12-03T21:31:40.053Z,19.75
2022-12-03T21:34:08.517Z,20.02
2022-12-03T21:36:35.862Z,21.45
2022-12-03T21:39:05.283Z,19.02
2022-12-03T21:41:35.522Z,19.65
2022-12-03T21:44:03.120Z,20.77
2022-12-03T21:47:09.315Z,20.52
2022-12-03T21:49:19.658Z,19.35
2022-12-03T21:51:48.567Z,20.52
2022-12-03T21:54:15.799Z,19.33
2022-12-03T21:56:43.314Z,20.60
2022-12-03T21:59:10.884Z,21.00
2022-12-03T22:01:42.779Z,19.45
2022-12-03T22:04:13.567Z,21.42
2022-12-03T22:06:40.650Z,20.75
2022-12-03T22:09:08.517Z,19.52
2022-12-03T22:11:35.760Z,20.38
2022-12-03T22:14:04.864Z,19.45
2022-12-03T22:16:31.799Z,18.95
2022-12-03T22:18:59.241Z,19.85
2022-12-03T22:21:26.518Z,19.98
2022-12-03T22:23:55.925Z,20.65
2022-12-03T22:26:23.267Z,19.55
2022-12-03T22:28:50.780Z,18.90
2022-12-03T22:31:19.437Z,18.48
2022-12-03T22:33:48.492Z,18.73
2022-12-03T22:36:21.003Z,18.10
2022-12-03T22:38:50.342Z,18.92
2022-12-03T22:41:17.753Z,20.10
2022-12-03T22:43:46.032Z,19.90
2022-12-03T22:46:13.627Z,20.90
2022-12-03T22:48:42.784Z,20.25
2022-12-03T22:51:22.102Z,19.60
2022-12-03T22:53:54.995Z,19.42
2022-12-03T22:56:23.339Z,20.25
2022-12-03T22:58:50.969Z,20.70
2022-12-03T23:01:27.514Z,20.63
2022-12-03T23:03:55.452Z,21.25
2022-12-03T23:06:24.048Z,19.67
2022-12-03T23:08:52.128Z,18.80
2022-12-03T23:11:20.290Z,18.63
2022-12-03T23:13:47.936Z,17.35
2022-12-03T23:16:18.706Z,19.05
2022-12-03T23:18:46.442Z,19.23
2022-12-03T23:21:24.021Z,20.42
2022-12-03T23:23:56.525Z,18.58
2022-12-03T23:26:24.105Z,20.35
2022-12-03T23:28:51.838Z,19.45
2022-12-03T23:31:20.706Z,18.90
2022-12-03T23:33:48.368Z,17.95
2022-12-03T23:36:16.752Z,19.23
2022-12-03T23:38:44.295Z,18.00
2022-12-03T23:41:14.045Z,18.02
2022-12-03T23:43:41.923Z,17.85
2022-12-03T23:46:12.282Z,18.83
2022-12-03T23:48:39.841Z,18.13
2022-12-03T23:51:12.101Z,19.55
2022-12-03T23:53:39.800Z,17.92
2022-12-03T23:56:13.719Z,18.90
2022-12-03T23:58:41.015Z,18.80
